Latest Coastal Weather Observations for Port Lincoln Airport

IDS60701

Issued at 4:55 am CST Sunday 20 April 2014 (issued every 10 minutes, with the page automatically refreshed every 10 minutes)

About coastal observations | Map of coastal stations | Coastal observations for SA | Marine services | Other Formats
Station Details ID: 018192 Name: PORT LINCOLN AWS Lat: -34.60 Lon: 135.88 Height: 8.5 m
Data from the previous 72 hours. | See also: Recent months at Port Lincoln Airport
Date/Time
CST
Temp

°C
Wind Pressure Rain
since 9am
mm
Weather Cloud Vis
km
Sea
Height
m
Swell
Dir
 
Speed
knots
Gust
knots
hPa Trend Height
m
Period
s
Dir
20/04:30am 9.2 NW 6 8 1017.3 - 0.0 - Partly cloudy 10 - - - -
20/04:00am 10.6 WNW 7 9 1017.3 - 0.0 - - 10 - - - -
20/03:30am 9.7 NNW 10 12 1017.2 - 0.0 - - 10 - - - -
20/03:00am 9.8 WNW 10 13 1017.5 - 0.0 - - 10 - - - -
20/02:30am 10.1 WNW 10 11 1017.4 - 0.0 - - 10 - - - -
20/02:00am 9.0 NNW 10 13 1017.3 - 0.0 - - 10 - - - -
20/01:30am 9.5 NW 9 10 1018.0 - 0.0 - - 10 - - - -
20/01:00am 10.2 WNW 10 11 1018.1 - 0.0 - - 10 - - - -
20/12:30am 10.2 NW 9 10 1018.0 - 0.0 - - 10 - - - -
20/12:00am 9.9 NW 8 9 1018.0 - 0.0 - - 10 - - - -
 
Date/Time
CST
Temp

°C
Wind Pressure Rain
since 9am
mm
Weather Cloud Vis
km
Sea
Height
m
Swell
Dir
 
Speed
knots
Gust
knots
hPa Trend Height
m
Period
s
Dir
19/11:30pm 9.8 NNW 5 6 1018.2 - 0.0 - - 10 - - - -
19/11:00pm 10.3 NW 7 8 1018.5 - 0.0 - - 10 - - - -
19/10:30pm 10.1 NW 6 8 1018.5 - 0.0 - - 10 - - - -
19/10:00pm 10.6 WNW 8 9 1018.9 - 0.0 - - 10 - - - -
19/09:30pm 10.4 WNW 7 8 1018.8 - 0.0 - - 10 - - - -
19/09:00pm 10.8 WNW 6 7 1018.7 - 0.0 - - 10 - - - -
19/08:30pm 10.6 NNW 5 6 1018.7 - 0.0 - - 10 - - - -
19/08:00pm 11.3 NW 5 6 1018.8 - 0.0 - - 10 - - - -
19/07:30pm 12.1 E 2 4 1018.7 - 0.0 - - 10 - - - -
19/07:00pm 15.1 ENE 5 6 1018.6 - 0.0 - Partly cloudy 10 - - - -
19/06:30pm 16.0 E 5 6 1018.2 - 0.0 - Partly cloudy 10 - - - -
19/06:00pm 16.4 ENE 6 8 1018.2 - 0.0 - Cloudy 10 - - - -
19/05:30pm 17.1 E 6 7 1018.3 - 0.0 - Cloudy 10 - - - -
19/05:00pm 17.2 E 7 8 1018.2 - 0.0 - Partly cloudy 10 - - - -
19/04:30pm 17.5 E 8 10 1018.2 - 0.0 - Cloudy 10 - - - -
19/04:00pm 17.5 E 8 11 1018.4 - 0.0 - Partly cloudy 10 - - - -
19/03:30pm 18.3 E 9 12 1018.5 - 0.0 - Partly cloudy 10 - - - -
19/03:00pm 18.0 E 9 11 1018.6 - 0.0 - Cloudy 10 - - - -
19/02:30pm 17.9 ENE 10 13 1018.7 - 0.0 - Cloudy 10 - - - -
19/02:00pm 18.2 E 9 13 1018.8 - 0.0 - Cloudy 10 - - - -
19/01:30pm 17.9 ENE 9 11 1019.4 - 0.0 - Partly cloudy 10 - - - -
19/01:00pm 17.7 E 9 12 1019.9 - 0.0 - Partly cloudy 10 - - - -
19/12:30pm 18.0 ENE 10 13 1020.3 - 0.0 - Partly cloudy 10 - - - -
19/12:00pm 18.6 E 10 13 1020.8 - 0.0 - Mostly cloudy 10 - - - -
19/11:30am 18.4 ENE 8 11 1021.5 - 0.0 - Partly cloudy 10 - - - -
19/11:00am 17.7 ENE 8 11 1021.8 - 0.0 - Partly cloudy 10 - - - -
19/10:30am 18.1 ENE 8 13 1021.9 - 0.0 - Partly cloudy 10 - - - -
19/10:00am 17.9 NNE 7 9 1022.3 - 0.0 - Partly cloudy 10 - - - -
19/09:30am 16.9 E 3 5 1022.7 - 0.0 - Partly cloudy 10 - - - -
19/09:00am 15.9 N 3 5 1022.8 - 0.0 - Cloudy 10 - - - -
19/08:30am 15.2 N 2 4 1022.8 - 0.0 - Partly cloudy 10 - - - -
19/08:00am 14.2 NNW 2 3 1022.6 - 0.0 - Cloudy 10 - - - -
19/07:30am 13.4 NNW 1 4 1022.4 - 0.0 - Partly cloudy 10 - - - -
19/07:00am 12.9 CALM 0 0 1022.4 - 0.0 - Partly cloudy 10 - - - -
19/06:30am 13.6 SW 1 4 1022.3 - 0.0 - Cloudy 10 - - - -
19/06:00am 14.3 CALM 0 4 1022.3 - 0.0 - Cloudy 10 - - - -
19/05:30am 13.7 WNW 6 8 1022.1 - 0.0 - Partly cloudy 10 - - - -
19/05:00am 13.3 CALM 0 0 1022.1 - 0.0 - Cloudy 10 - - - -
19/04:30am 14.7 ESE 5 7 1022.0 - 0.0 - Partly cloudy 10 - - - -
19/04:00am 13.4 E 3 6 1022.1 - 0.0 - Cloudy 10 - - - -
19/03:30am 14.4 ESE 6 8 1022.0 - 0.0 - Cloudy 10 - - - -
19/03:00am 14.3 ESE 7 9 1022.1 - 0.0 - Partly cloudy 10 - - - -
19/02:30am 14.8 ESE 9 11 1022.3 - 0.0 - Partly cloudy 10 - - - -
19/02:00am 14.9 ESE 9 11 1022.5 - 0.0 - Partly cloudy 10 - - - -
19/01:30am 13.5 ESE 8 9 1022.6 - 0.0 - Partly cloudy 10 - - - -
19/01:00am 12.5 ESE 8 9 1022.8 - 0.0 - Partly cloudy 10 - - - -
19/12:30am 11.7 ESE 4 7 1023.0 - 0.0 - Partly cloudy 10 - - - -
19/12:00am 12.5 SE 7 9 1023.2 - 0.0 - Partly cloudy 10 - - - -
 
Date/Time
CST
Temp

°C
Wind Pressure Rain
since 9am
mm
Weather Cloud Vis
km
Sea
Height
m
Swell
Dir
 
Speed
knots
Gust
knots
hPa Trend Height
m
Period
s
Dir
18/11:30pm 9.2 E 4 5 1023.4 - 0.0 - Partly cloudy 10 - - - -
18/11:00pm 10.0 SSE 2 5 1023.7 - 0.0 - - 10 - - - -
18/10:30pm 9.3 CALM 0 3 1024.0 - 0.0 - - 10 - - - -
18/10:00pm 9.7 CALM 0 4 1024.1 - 0.0 - - 10 - - - -
18/09:30pm 12.7 SE 5 7 1024.1 - 0.0 - - 10 - - - -
18/09:00pm 12.7 SSE 7 8 1024.2 - 0.0 - - 10 - - - -
18/08:30pm 14.1 SSE 9 11 1023.9 - 0.0 - - 10 - - - -
18/08:00pm 14.1 SSE 8 10 1024.0 - 0.0 - - 10 - - - -
18/07:30pm 14.8 SSE 9 11 1024.0 - 0.0 - - 10 - - - -
18/07:00pm 15.0 SSE 11 13 1023.9 - 0.0 - - 10 - - - -
18/06:30pm 15.4 SSE 12 15 1023.5 - 0.0 - - 10 - - - -
18/06:00pm 15.8 SSE 13 16 1023.4 - 0.0 - - 10 - - - -
18/05:30pm 16.6 SE 13 16 1023.2 - 0.0 - Partly cloudy 10 - - - -
18/05:00pm 17.6 SE 13 17 1023.1 - 0.0 - Partly cloudy 10 - - - -
18/04:30pm 18.3 S 13 16 1023.1 - 0.0 - - 10 - - - -
18/04:00pm 19.1 S 13 17 1023.1 - 0.0 - - 10 - - - -
18/03:30pm 19.2 S 14 17 1022.9 - 0.0 - - 10 - - - -
18/03:00pm 19.5 S 15 17 1022.8 - 0.0 - - 10 - - - -
18/02:30pm 19.0 S 16 19 1022.6 - 0.0 - - 10 - - - -
18/02:00pm 19.6 S 16 19 1022.6 - 0.0 - Partly cloudy 10 - - - -
18/01:30pm 20.1 S 15 19 1022.6 - 0.0 - Partly cloudy 10 - - - -
18/01:00pm 19.3 SSE 13 16 1022.9 - 0.0 - Cloudy 10 - - - -
18/12:30pm 19.6 SSE 13 16 1023.0 - 0.0 - Partly cloudy 10 - - - -
18/12:00pm 20.0 SSE 13 18 1023.3 - 0.0 - Cloudy 10 - - - -
18/11:30am 19.5 S 13 16 1023.5 - 0.0 - Partly cloudy 10 - - - -
18/11:00am 20.5 S 13 16 1023.5 - 0.0 - Partly cloudy 10 - - - -
18/10:30am 19.8 SSE 11 14 1023.4 - 0.0 - Partly cloudy 10 - - - -
18/10:00am 19.2 SSE 12 16 1023.4 - 0.0 - Partly cloudy 10 - - - -
18/09:30am 18.2 S 13 16 1023.5 - 0.0 - Partly cloudy 10 - - - -
18/09:00am 18.9 S 10 12 1023.2 - 0.4 - Mostly clear 10 - - - -
18/08:30am 17.4 SW 8 10 1023.2 - 0.4 - Partly cloudy 10 - - - -
18/08:00am 16.7 SW 8 10 1022.7 - 0.4 - Cloudy 10 - - - -
18/07:30am 16.2 SW 7 9 1022.3 - 0.4 - Cloudy 10 - - - -
18/07:00am 15.9 WSW 7 8 1021.8 - 0.4 - Partly cloudy 10 - - - -
18/06:30am 15.9 WSW 8 10 1021.5 - 0.4 - Partly cloudy 10 - - - -
18/06:00am 16.0 W 8 9 1021.3 - 0.4 - Cloudy 10 - - - -
18/05:30am 16.1 WSW 8 10 1021.1 - 0.4 - Cloudy 10 - - - -
18/05:00am 16.6 SW 12 17 1020.7 - 0.2 - Partly cloudy 10 - - - -
18/04:30am 15.8 W 8 9 1020.3 - 0.2 - Partly cloudy 10 - - - -
18/04:00am 15.7 WNW 8 11 1020.3 - 0.2 - Partly cloudy 10 - - - -
18/03:30am 15.3 WNW 8 11 1020.3 - 0.2 - Partly cloudy 10 - - - -
18/03:00am 14.8 WNW 8 11 1020.2 - 0.2 - Mostly clear 10 - - - -
18/02:30am 14.8 WNW 10 13 1020.3 - 0.2 - - 10 - - - -
18/02:00am 14.5 WNW 9 11 1020.2 - 0.2 - - 10 - - - -
18/01:30am 14.5 W 9 11 1020.2 - 0.2 - - 10 - - - -
18/01:00am 14.9 WNW 10 12 1020.3 - 0.2 - - 10 - - - -
18/12:30am 14.8 WNW 9 11 1020.2 - 0.2 - - 10 - - - -
18/12:00am 15.2 WNW 9 11 1020.1 - 0.2 - - 10 - - - -
 
Date/Time
CST
Temp

°C
Wind Pressure Rain
since 9am
mm
Weather Cloud Vis
km
Sea
Height
m
Swell
Dir
 
Speed
knots
Gust
knots
hPa Trend Height
m
Period
s
Dir
17/11:30pm 15.2 WNW 10 13 1020.3 - 0.2 - - 10 - - - -
17/11:00pm 15.3 WNW 9 11 1020.4 - 0.2 - - 10 - - - -
17/10:30pm 15.6 WNW 7 10 1020.4 - 0.2 - - 10 - - - -
17/10:00pm 15.8 WNW 7 8 1020.6 - 0.2 - - 10 - - - -
17/09:30pm 16.4 W 10 13 1020.5 - 0.2 - - 10 - - - -
17/09:00pm 17.1 W 12 16 1020.7 - 0.2 - - 10 - - - -
17/08:30pm 16.3 WNW 7 10 1020.4 - 0.2 - - 10 - - - -
17/08:00pm 16.8 WNW 11 15 1020.4 - 0.2 - - 10 - - - -
17/07:30pm 16.8 WNW 9 12 1020.0 - 0.2 - - 10 - - - -
17/07:00pm 17.3 WNW 9 12 1019.8 - 0.2 - - 10 - - - -
17/06:30pm 17.8 W 10 13 1019.6 - 0.2 - - 10 - - - -
17/06:00pm 18.8 WNW 9 13 1019.3 - 0.2 - - 10 - - - -
17/05:30pm 19.8 W 11 16 1019.0 - 0.2 - - 10 - - - -
17/05:00pm 21.1 WNW 13 16 1018.9 - 0.2 - - 10 - - - -
17/04:30pm 22.0 W 16 21 1019.1 - 0.2 - - 10 - - - -
17/04:00pm 24.0 WNW 15 20 1018.8 - 0.2 - - 10 - - - -
17/03:30pm 24.4 WNW 17 22 1018.8 - 0.2 - - 10 - - - -
17/03:00pm 24.8 NW 16 22 1018.9 - 0.2 - - 10 - - - -
17/02:30pm 25.0 WNW 14 22 1019.0 - 0.2 - - 10 - - - -
17/02:00pm 23.8 WNW 14 19 1019.1 - 0.2 - - 10 - - - -
17/01:30pm 23.6 WNW 11 18 1019.4 - 0.2 - - 10 - - - -
17/01:00pm 23.2 NNW 12 15 1020.0 - 0.2 - - 10 - - - -
17/12:30pm 23.1 WNW 11 15 1020.5 - 0.2 - - 10 - - - -
17/12:00pm 22.3 WNW 10 15 1020.8 - 0.0 - - 10 - - - -
17/11:30am 22.2 NNW 9 15 1021.1 - 0.0 - - 10 - - - -
17/11:00am 21.4 NNW 10 13 1021.4 - 0.0 - - 10 - - - -
17/10:30am 21.4 NNW 9 13 1021.3 - 0.0 - - 10 - - - -
17/10:00am 20.3 NW 11 14 1021.4 - 0.0 - - 10 - - - -
17/09:30am 18.5 N 6 9 1021.5 - 0.0 - - 10 - - - -
17/09:00am 16.4 N 8 9 1021.5 - 0.0 - - 10 - - - -
17/08:30am 14.6 N 6 7 1021.4 - 0.0 - - 10 - - - -
17/08:00am 13.5 NNW 7 11 1021.1 - 0.0 - - 10 - - - -
17/07:30am 12.6 NNW 6 7 1020.7 - 0.0 - - 10 - - - -
17/07:00am 11.7 NNW 7 9 1020.3 - 0.0 - - 10 - - - -
17/06:30am 12.0 N 8 11 1020.3 - 0.0 - Partly cloudy 4 - - - -
17/06:18am 11.9 N 5 6 1020.4 - 0.0 - - 5 - - - -
17/06:05am 12.0 NW 6 7 1020.4 - 0.0 - - 10 - - - -
17/06:00am 12.1 NW 6 7 1020.3 - 0.0 - - 10 - - - -
17/05:46am 12.5 NW 7 9 1020.3 - 0.0 - - 5 - - - -
17/05:30am 12.8 NNW 6 7 1020.1 - 0.0 - Cloudy 0.4 - - - -
17/05:15am 12.9 NNW 5 6 1020.0 - 0.0 - Partly cloudy 1 - - - -
17/05:11am 13.2 NNW 5 6 1020.0 - 0.0 - Partly cloudy 5 - - - -
17/05:00am 13.2 NNW 5 7 1020.1 - 0.0 - - 10 - - - -

Other Formats:

Comma delimited format used in spreadsheet applications
http://www.bom.gov.au/fwo/IDS60701/IDS60701.95661.axf

JavaScript Object Notation format (JSON) in row-major order
http://www.bom.gov.au/fwo/IDS60701/IDS60701.95661.json